createdAt,value
2018-04-02T00:02:17.237Z,3.20
2018-04-02T00:05:19.800Z,3.24
2018-04-02T00:08:22.260Z,3.24
2018-04-02T00:11:24.831Z,3.25
2018-04-02T00:14:27.287Z,3.27
2018-04-02T00:17:29.851Z,3.27
2018-04-02T00:20:32.307Z,3.27
2018-04-02T00:23:34.807Z,3.28
2018-04-02T00:26:37.259Z,3.30
2018-04-02T00:29:39.792Z,3.29
2018-04-02T00:32:42.260Z,3.31
2018-04-02T00:35:44.813Z,3.30
2018-04-02T00:38:47.261Z,3.32
2018-04-02T00:41:49.731Z,3.33
2018-04-02T00:44:52.228Z,3.33
2018-04-02T00:47:54.757Z,3.34
2018-04-02T00:50:57.316Z,3.34
2018-04-02T00:53:59.886Z,3.33
2018-04-02T00:57:03.060Z,3.34
2018-04-02T01:00:05.618Z,3.35
2018-04-02T01:03:08.101Z,3.34
2018-04-02T01:06:10.641Z,3.35
2018-04-02T01:09:13.108Z,3.30
2018-04-02T01:12:15.576Z,3.29
2018-04-02T01:15:18.058Z,3.21
2018-04-02T01:18:20.522Z,3.28
2018-04-02T01:21:22.965Z,3.30
2018-04-02T01:24:25.428Z,3.35
2018-04-02T01:27:27.888Z,3.36
2018-04-02T01:30:30.408Z,3.33
2018-04-02T01:33:34.163Z,3.33
2018-04-02T01:36:36.612Z,3.31
2018-04-02T01:39:39.142Z,3.35
2018-04-02T01:42:41.567Z,3.39
2018-04-02T01:45:44.022Z,3.38
2018-04-02T01:48:46.529Z,3.35
2018-04-02T01:51:48.977Z,3.38
2018-04-02T01:54:51.487Z,3.36
2018-04-02T01:57:54.048Z,3.36
2018-04-02T02:00:56.474Z,3.39
2018-04-02T02:03:58.933Z,3.39
2018-04-02T02:07:02.873Z,3.38
2018-04-02T02:10:05.297Z,3.39
2018-04-02T02:13:07.757Z,3.38
2018-04-02T02:16:10.311Z,3.34
2018-04-02T02:19:12.788Z,3.38
2018-04-02T02:22:15.253Z,3.39
2018-04-02T02:25:17.788Z,3.30
2018-04-02T02:28:20.351Z,3.32
2018-04-02T02:31:22.920Z,3.31
2018-04-02T02:34:25.430Z,3.31
2018-04-02T02:37:27.946Z,3.34
2018-04-02T02:40:30.378Z,3.35
2018-04-02T02:43:32.963Z,3.31
2018-04-02T02:46:35.433Z,3.27
2018-04-02T02:49:37.857Z,3.14
2018-04-02T02:52:40.349Z,3.06
2018-04-02T02:55:42.916Z,2.98
2018-04-02T02:58:45.468Z,2.89
2018-04-02T03:01:48.009Z,2.80
2018-04-02T03:04:50.445Z,2.68
2018-04-02T03:07:53.052Z,2.51
2018-04-02T03:10:55.574Z,2.36
2018-04-02T03:13:59.272Z,2.31
2018-04-02T03:17:01.869Z,2.31
2018-04-02T03:20:04.437Z,2.38
2018-04-02T03:23:06.897Z,2.38
2018-04-02T03:26:10.178Z,2.41
2018-04-02T03:29:12.638Z,2.43
2018-04-02T03:32:15.104Z,2.45
2018-04-02T03:35:17.657Z,2.50
2018-04-02T03:38:20.149Z,2.53
2018-04-02T03:41:22.682Z,2.58
2018-04-02T03:44:25.143Z,2.51
2018-04-02T03:47:27.660Z,2.49
2018-04-02T03:50:30.135Z,2.53
2018-04-02T03:53:32.628Z,2.56
2018-04-02T03:56:35.088Z,2.51
2018-04-02T03:59:37.570Z,2.51
2018-04-02T04:02:40.045Z,2.51
2018-04-02T04:05:42.488Z,2.50
2018-04-02T04:08:45.509Z,2.45
2018-04-02T04:11:48.000Z,2.38
2018-04-02T04:14:50.572Z,2.34
2018-04-02T04:17:53.028Z,2.29
2018-04-02T04:20:55.580Z,2.30
2018-04-02T04:23:58.049Z,2.29
2018-04-02T04:27:00.569Z,2.25
2018-04-02T04:30:03.024Z,2.15
2018-04-02T04:33:05.538Z,2.05
2018-04-02T04:36:09.535Z,1.95
2018-04-02T04:39:12.090Z,1.84
2018-04-02T04:42:14.655Z,1.76
2018-04-02T04:45:17.142Z,1.64
2018-04-02T04:48:19.674Z,1.53
2018-04-02T04:51:22.238Z,1.45
2018-04-02T04:54:24.694Z,1.34
2018-04-02T04:57:27.260Z,1.25
2018-04-02T05:00:29.747Z,1.21
2018-04-02T05:03:32.225Z,1.12
2018-04-02T05:06:34.750Z,1.19
2018-04-02T05:09:37.314Z,1.22
2018-04-02T05:12:39.772Z,1.34
2018-04-02T05:15:42.216Z,1.51
2018-04-02T05:18:44.685Z,1.73
2018-04-02T05:21:47.259Z,1.96
2018-04-02T05:24:49.706Z,2.03
2018-04-02T05:27:52.278Z,2.08
2018-04-02T05:30:54.884Z,2.10
2018-04-02T05:33:57.360Z,2.20
2018-04-02T05:36:59.790Z,2.34
2018-04-02T05:40:02.268Z,2.46
2018-04-02T05:43:04.735Z,2.55
2018-04-02T05:46:07.272Z,2.68
2018-04-02T05:49:09.748Z,2.81
2018-04-02T05:52:12.280Z,2.89
2018-04-02T05:55:14.761Z,2.97
2018-04-02T05:58:17.284Z,3.08
2018-04-02T06:01:19.754Z,3.21
2018-04-02T06:04:22.323Z,3.25
2018-04-02T06:07:24.774Z,3.26
2018-04-02T06:10:27.342Z,3.40
2018-04-02T06:13:29.863Z,3.47
2018-04-02T06:16:32.373Z,3.65
2018-04-02T06:19:34.826Z,3.83
2018-04-02T06:22:37.384Z,3.89
2018-04-02T06:25:39.841Z,4.07
2018-04-02T06:28:42.363Z,4.30
2018-04-02T06:31:44.886Z,4.43
2018-04-02T06:34:47.534Z,4.57
2018-04-02T06:37:49.966Z,4.57
2018-04-02T06:40:52.454Z,4.61
2018-04-02T06:43:54.896Z,4.69
2018-04-02T06:46:57.390Z,4.60
2018-04-02T06:49:59.896Z,4.88
2018-04-02T06:53:02.352Z,4.95
2018-04-02T06:56:04.923Z,5.31
2018-04-02T06:59:07.425Z,5.57
2018-04-02T07:02:09.881Z,5.94
2018-04-02T07:05:12.376Z,6.25
2018-04-02T07:08:14.841Z,6.40
2018-04-02T07:11:17.378Z,6.35
2018-04-02T07:14:19.926Z,5.55
2018-04-02T07:17:22.407Z,6.37
2018-04-02T07:20:24.956Z,6.07
2018-04-02T07:23:27.415Z,6.23
2018-04-02T07:26:29.901Z,6.04
2018-04-02T07:29:32.433Z,5.99
2018-04-02T07:32:34.996Z,5.65
2018-04-02T07:35:37.467Z,5.45
2018-04-02T07:38:39.980Z,5.48
2018-04-02T07:41:42.502Z,5.52
2018-04-02T07:44:44.977Z,6.31
2018-04-02T07:47:47.486Z,7.09
2018-04-02T07:50:50.080Z,7.30
2018-04-02T07:53:52.541Z,7.60
2018-04-02T07:56:55.048Z,8.02
2018-04-02T07:59:57.558Z,8.28
2018-04-02T08:03:00.118Z,8.57
2018-04-02T08:06:02.625Z,8.62
2018-04-02T08:09:05.147Z,8.44
2018-04-02T08:12:07.746Z,7.30
2018-04-02T08:15:10.167Z,8.11
2018-04-02T08:18:12.665Z,8.30
2018-04-02T08:21:15.253Z,8.47
2018-04-02T08:24:17.923Z,8.90
2018-04-02T08:27:20.512Z,8.34
2018-04-02T08:30:22.986Z,8.80
2018-04-02T08:33:25.485Z,8.02
2018-04-02T08:36:28.035Z,8.63
2018-04-02T08:39:30.544Z,8.53
2018-04-02T08:42:33.130Z,9.07
2018-04-02T08:45:35.817Z,9.22
2018-04-02T08:48:38.360Z,9.02
2018-04-02T08:51:40.853Z,8.08
2018-04-02T08:54:43.383Z,8.59
2018-04-02T08:57:45.938Z,8.44
2018-04-02T09:00:48.512Z,8.89
2018-04-02T09:03:51.062Z,9.33
2018-04-02T09:06:53.557Z,9.19
2018-04-02T09:09:56.096Z,8.70
2018-04-02T09:12:58.652Z,9.15
2018-04-02T09:16:01.144Z,8.92
2018-04-02T09:19:03.623Z,8.50
2018-04-02T09:22:06.132Z,8.28
2018-04-02T09:25:08.668Z,8.43
2018-04-02T09:28:11.196Z,8.53
2018-04-02T09:31:13.652Z,8.91
2018-04-02T09:34:16.184Z,9.12
2018-04-02T09:37:18.677Z,9.30
2018-04-02T09:40:21.212Z,9.45
2018-04-02T09:43:23.703Z,9.33
2018-04-02T09:46:26.332Z,8.59
2018-04-02T09:49:28.863Z,9.04
2018-04-02T09:52:31.358Z,8.86
2018-04-02T09:55:33.913Z,9.53
2018-04-02T09:58:36.417Z,9.71
2018-04-02T10:01:38.883Z,9.18
2018-04-02T10:04:43.336Z,9.35
2018-04-02T10:07:45.784Z,9.59
2018-04-02T10:10:48.242Z,9.79
2018-04-02T10:13:50.758Z,9.45
2018-04-02T10:16:53.254Z,9.09
2018-04-02T10:19:55.848Z,9.05
2018-04-02T10:22:58.373Z,9.11
2018-04-02T10:26:00.982Z,9.82
2018-04-02T10:29:03.471Z,9.02
2018-04-02T10:32:05.958Z,9.54
2018-04-02T10:35:08.443Z,9.54
2018-04-02T10:38:10.945Z,9.24
2018-04-02T10:41:13.411Z,9.52
2018-04-02T10:44:15.947Z,9.71
2018-04-02T10:47:18.608Z,9.81
2018-04-02T10:50:21.180Z,9.93
2018-04-02T10:53:23.653Z,10.19
2018-04-02T10:56:26.153Z,10.41
2018-04-02T10:59:28.664Z,10.67
2018-04-02T11:02:31.118Z,10.96
2018-04-02T11:05:33.684Z,10.72
2018-04-02T11:08:36.239Z,10.65
2018-04-02T11:11:38.759Z,10.35
2018-04-02T11:14:41.250Z,10.05
2018-04-02T11:17:43.755Z,10.20
2018-04-02T11:20:46.295Z,10.87
2018-04-02T11:23:48.829Z,10.87
2018-04-02T11:26:51.303Z,11.11
2018-04-02T11:29:53.814Z,11.10
2018-04-02T11:32:56.340Z,10.85
2018-04-02T11:35:58.808Z,10.57
2018-04-02T11:39:01.334Z,10.36
2018-04-02T11:42:03.923Z,11.20
2018-04-02T11:45:06.454Z,11.20
2018-04-02T11:48:09.012Z,11.39
2018-04-02T11:51:11.610Z,10.90
2018-04-02T11:54:14.065Z,10.10
2018-04-02T11:57:16.557Z,10.55
2018-04-02T12:00:19.153Z,10.88
2018-04-02T12:03:21.666Z,10.98
2018-04-02T12:06:24.143Z,10.68
2018-04-02T12:09:26.617Z,11.19
2018-04-02T12:12:29.268Z,11.01
2018-04-02T12:15:31.780Z,11.47
2018-04-02T12:18:34.371Z,10.86
2018-04-02T12:21:36.825Z,10.85
2018-04-02T12:24:39.379Z,10.81
2018-04-02T12:27:41.959Z,10.90
2018-04-02T12:30:44.619Z,11.23
2018-04-02T12:33:47.108Z,11.33
2018-04-02T12:36:49.629Z,11.14
2018-04-02T12:39:52.084Z,11.03
2018-04-02T12:42:54.594Z,11.37
2018-04-02T12:45:57.134Z,10.98
2018-04-02T12:48:59.707Z,11.08
2018-04-02T12:52:02.188Z,11.28
2018-04-02T12:55:04.690Z,11.49
2018-04-02T12:58:07.180Z,11.81
2018-04-02T13:01:09.671Z,11.69
2018-04-02T13:04:12.194Z,11.77
2018-04-02T13:07:14.669Z,11.17
2018-04-02T13:10:17.145Z,11.04
2018-04-02T13:13:19.685Z,10.59
2018-04-02T13:16:22.174Z,10.74
2018-04-02T13:19:24.746Z,10.92
2018-04-02T13:22:27.234Z,11.02
2018-04-02T13:25:29.743Z,11.14
2018-04-02T13:28:32.294Z,11.10
2018-04-02T13:31:34.890Z,10.94
2018-04-02T13:34:37.470Z,11.27
2018-04-02T13:37:40.066Z,11.27
2018-04-02T13:40:42.647Z,11.19
2018-04-02T13:43:45.206Z,11.02
2018-04-02T13:46:47.650Z,11.08
2018-04-02T13:49:50.227Z,10.96
2018-04-02T13:52:52.750Z,11.34
2018-04-02T13:55:55.252Z,11.28
2018-04-02T13:58:57.717Z,11.41
2018-04-02T14:02:00.248Z,11.40
2018-04-02T14:05:02.713Z,11.68
2018-04-02T14:08:05.212Z,11.38
2018-04-02T14:11:07.769Z,11.56
2018-04-02T14:14:10.267Z,11.66
2018-04-02T14:17:12.781Z,11.81
2018-04-02T14:20:15.303Z,12.01
2018-04-02T14:23:17.850Z,12.17
2018-04-02T14:26:20.369Z,12.14
2018-04-02T14:29:22.917Z,11.91
2018-04-02T14:32:25.366Z,11.74
2018-04-02T14:35:27.908Z,11.47
2018-04-02T14:38:30.365Z,11.44
2018-04-02T14:41:32.840Z,11.55
2018-04-02T14:44:35.377Z,11.48
2018-04-02T14:47:37.927Z,11.66
2018-04-02T14:50:40.448Z,11.54
2018-04-02T14:53:42.961Z,11.62
2018-04-02T14:56:45.417Z,11.44
2018-04-02T14:59:47.930Z,11.30
2018-04-02T15:02:50.422Z,11.42
2018-04-02T15:05:52.988Z,11.46
2018-04-02T15:08:55.502Z,11.59
2018-04-02T15:11:57.987Z,11.60
2018-04-02T15:15:00.517Z,11.57
2018-04-02T15:18:03.022Z,11.57
2018-04-02T15:21:05.581Z,11.58
2018-04-02T15:24:08.116Z,11.60
2018-04-02T15:27:10.703Z,11.68
2018-04-02T15:30:13.267Z,11.73
2018-04-02T15:33:15.728Z,11.90
2018-04-02T15:36:18.291Z,12.03
2018-04-02T15:39:20.853Z,12.03
2018-04-02T15:42:23.349Z,12.08
2018-04-02T15:45:25.845Z,12.31
2018-04-02T15:48:28.387Z,12.26
2018-04-02T15:51:30.929Z,12.29
2018-04-02T15:54:33.397Z,12.23
2018-04-02T15:57:38.799Z,12.13
2018-04-02T16:00:41.511Z,12.20
2018-04-02T16:03:44.002Z,12.32
2018-04-02T16:06:46.511Z,12.14
2018-04-02T16:09:48.997Z,12.08
2018-04-02T16:12:51.481Z,12.05
2018-04-02T16:15:53.968Z,11.86
2018-04-02T16:18:56.453Z,11.78
2018-04-02T16:21:58.937Z,11.61
2018-04-02T16:25:01.446Z,11.71
2018-04-02T16:28:03.939Z,11.61
2018-04-02T16:31:06.443Z,11.61
2018-04-02T16:34:08.961Z,11.60
2018-04-02T16:37:11.545Z,11.59
2018-04-02T16:40:13.991Z,11.52
2018-04-02T16:43:16.482Z,11.52
2018-04-02T16:46:19.188Z,11.55
2018-04-02T16:49:21.754Z,11.56
2018-04-02T16:52:24.352Z,11.60
2018-04-02T16:55:26.877Z,11.56
2018-04-02T16:58:29.450Z,11.47
2018-04-02T17:01:31.944Z,11.49
2018-04-02T17:04:34.471Z,11.48
2018-04-02T17:07:36.958Z,11.40
2018-04-02T17:10:39.464Z,11.42
2018-04-02T17:13:41.962Z,11.43
2018-04-02T17:16:44.434Z,11.45
2018-04-02T17:19:46.964Z,11.44
2018-04-02T17:22:49.525Z,11.36
2018-04-02T17:25:52.054Z,11.32
2018-04-02T17:28:54.515Z,11.34
2018-04-02T17:31:57.105Z,11.37
2018-04-02T17:34:59.663Z,11.19
2018-04-02T17:38:02.118Z,11.26
2018-04-02T17:41:04.620Z,11.19
2018-04-02T17:44:07.091Z,11.20
2018-04-02T17:47:09.561Z,11.19
2018-04-02T17:50:12.058Z,11.12
2018-04-02T17:53:14.585Z,11.24
2018-04-02T17:56:17.174Z,11.20
2018-04-02T17:59:19.653Z,10.93
2018-04-02T18:02:22.099Z,10.94
2018-04-02T18:05:24.658Z,11.00
2018-04-02T18:08:27.125Z,11.03
2018-04-02T18:11:29.682Z,11.07
2018-04-02T18:14:32.216Z,11.15
2018-04-02T18:17:34.773Z,11.14
2018-04-02T18:20:37.301Z,11.07
2018-04-02T18:23:39.795Z,11.04
2018-04-02T18:26:42.369Z,11.07
2018-04-02T18:29:44.834Z,11.07
2018-04-02T18:32:47.457Z,11.12
2018-04-02T18:35:50.119Z,11.18
2018-04-02T18:38:52.613Z,11.18
2018-04-02T18:41:55.122Z,11.08
2018-04-02T18:44:57.700Z,11.00
2018-04-02T18:48:00.199Z,11.10
2018-04-02T18:51:02.725Z,11.10
2018-04-02T18:54:05.293Z,11.11
2018-04-02T18:57:07.848Z,11.12
2018-04-02T19:00:10.415Z,11.15
2018-04-02T19:03:12.922Z,11.09
2018-04-02T19:06:15.541Z,11.15
2018-04-02T19:09:18.040Z,11.12
2018-04-02T19:12:20.640Z,11.13
2018-04-02T19:15:23.150Z,11.13
2018-04-02T19:18:25.696Z,11.10
2018-04-02T19:21:28.206Z,11.07
2018-04-02T19:24:31.569Z,11.09
2018-04-02T19:27:34.194Z,10.98
2018-04-02T19:30:36.736Z,11.12
2018-04-02T19:33:39.232Z,11.04
2018-04-02T19:36:41.706Z,11.05
2018-04-02T19:39:44.225Z,11.11
2018-04-02T19:42:46.686Z,11.10
2018-04-02T19:45:49.205Z,11.11
2018-04-02T19:48:51.729Z,11.17
2018-04-02T19:51:54.247Z,11.02
2018-04-02T19:54:56.798Z,11.09
2018-04-02T19:57:59.289Z,11.02
2018-04-02T20:01:02.426Z,10.89
2018-04-02T20:04:04.940Z,10.92
2018-04-02T20:07:07.512Z,10.90
2018-04-02T20:10:09.992Z,10.84
2018-04-02T20:13:12.699Z,10.93
2018-04-02T20:16:15.220Z,10.90
2018-04-02T20:19:17.703Z,10.84
2018-04-02T20:22:20.291Z,10.71
2018-04-02T20:25:22.881Z,10.69
2018-04-02T20:28:25.475Z,10.68
2018-04-02T20:31:28.012Z,10.72
2018-04-02T20:34:30.472Z,10.88
2018-04-02T20:37:33.034Z,10.96
2018-04-02T20:40:35.542Z,10.94
2018-04-02T20:43:38.010Z,10.97
2018-04-02T20:46:40.454Z,10.89
2018-04-02T20:49:43.089Z,10.74
2018-04-02T20:52:45.648Z,10.64
2018-04-02T20:55:48.205Z,10.73
2018-04-02T20:58:50.765Z,10.67
2018-04-02T21:01:53.262Z,10.36
2018-04-02T21:04:55.770Z,10.24
2018-04-02T21:07:58.257Z,10.16
2018-04-02T21:11:00.710Z,10.14
2018-04-02T21:14:03.210Z,10.23
2018-04-02T21:17:05.718Z,10.21
2018-04-02T21:20:08.270Z,10.15
2018-04-02T21:23:10.966Z,10.23
2018-04-02T21:26:13.530Z,10.21
2018-04-02T21:29:16.087Z,10.12
2018-04-02T21:32:18.588Z,10.08
2018-04-02T21:35:21.072Z,10.11
2018-04-02T21:38:23.582Z,10.01
2018-04-02T21:41:26.050Z,10.00
2018-04-02T21:44:28.600Z,9.97
2018-04-02T21:47:31.086Z,9.92
2018-04-02T21:50:33.553Z,9.92
2018-04-02T21:53:36.045Z,9.90
2018-04-02T21:56:38.502Z,9.88
2018-04-02T21:59:41.014Z,9.81
2018-04-02T22:02:43.565Z,9.78
2018-04-02T22:05:46.229Z,9.67
2018-04-02T22:08:48.742Z,9.53
2018-04-02T22:11:51.255Z,9.50
2018-04-02T22:14:53.753Z,9.47
2018-04-02T22:17:56.246Z,9.34
2018-04-02T22:20:58.695Z,9.34
2018-04-02T22:24:01.300Z,9.35
2018-04-02T22:27:03.802Z,9.30
2018-04-02T22:30:06.303Z,9.23
2018-04-02T22:33:08.767Z,9.16
2018-04-02T22:36:11.267Z,9.11
2018-04-02T22:39:13.813Z,9.15
2018-04-02T22:42:16.372Z,9.20
2018-04-02T22:45:18.832Z,9.29
2018-04-02T22:48:21.399Z,9.29
2018-04-02T22:51:23.956Z,9.31
2018-04-02T22:54:26.452Z,9.29
2018-04-02T22:57:28.951Z,9.29
2018-04-02T23:00:31.442Z,9.22
2018-04-02T23:03:33.897Z,9.25
2018-04-02T23:06:36.402Z,9.26
2018-04-02T23:09:38.935Z,9.21
2018-04-02T23:12:41.377Z,9.14
2018-04-02T23:15:43.914Z,9.20
2018-04-02T23:18:46.371Z,9.36
2018-04-02T23:21:48.972Z,9.34
2018-04-02T23:24:51.548Z,9.16
2018-04-02T23:27:54.067Z,9.08
2018-04-02T23:30:56.561Z,9.08
2018-04-02T23:33:59.080Z,9.11
2018-04-02T23:37:01.581Z,9.11
2018-04-02T23:40:04.041Z,9.05
2018-04-02T23:43:06.606Z,9.04
2018-04-02T23:46:09.087Z,9.01
2018-04-02T23:49:11.625Z,9.09
2018-04-02T23:52:14.092Z,9.07
2018-04-02T23:55:16.651Z,9.10
2018-04-02T23:58:19.163Z,9.19
